Time;durP1;ratioP1;P1;durP2;ratioP2;P2;SDS_P1;SDS_P2;PMS_P1;PMS_P2;Temp;Humidity;BMP_temperature;BMP_pressure;BME280_temperature;BME280_humidity;BME280_pressure;Samples;Min_cycle;Max_cycle;Signal;HPM_P1;HPM_P2
2022/02/17 00:02:32;;;;;;;1.95;1.85;;;;;;;9.86;85.72;98030.06;5033913;28;20174;-68
2022/02/17 00:05:17;;;;;;;1.85;1.70;;;;;;;9.85;85.75;98036.97;5034238;28;20052;-66
2022/02/17 00:08:01;;;;;;;1.88;1.77;;;;;;;9.85;85.46;98049.06;5034128;28;20041;-67
2022/02/17 00:10:45;;;;;;;5.22;1.85;;;;;;;9.84;85.48;98030.06;5034027;28;20592;-67
2022/02/17 00:13:29;;;;;;;2.50;1.88;;;;;;;9.85;85.66;98033.53;5035402;28;20512;-66
2022/02/17 00:16:12;;;;;;;2.00;1.50;;;;;;;9.84;85.72;98030.06;5034663;28;20044;-66
2022/02/17 00:18:56;;;;;;;2.25;2.05;;;;;;;9.85;85.70;98003.31;5034797;28;20075;-66
2022/02/17 00:21:40;;;;;;;2.15;1.83;;;;;;;9.86;85.82;98020.56;5034462;28;20532;-66
2022/02/17 00:24:24;;;;;;;3.97;2.10;;;;;;;9.86;85.24;98035.25;5034548;28;20179;-66
2022/02/17 00:27:09;;;;;;;2.28;1.92;;;;;;;9.87;85.80;98065.41;5034312;28;20123;-66
2022/02/17 00:29:52;;;;;;;3.85;2.10;;;;;;;9.86;85.53;98046.44;5033591;28;20559;-66
2022/02/17 00:32:37;;;;;;;4.40;2.38;;;;;;;9.84;85.24;98055.09;5033341;28;20096;-66
2022/02/17 00:35:21;;;;;;;2.40;2.08;;;;;;;9.86;85.65;98061.13;5033361;28;20631;-66
2022/02/17 00:38:05;;;;;;;8.10;2.80;;;;;;;9.84;85.65;98062.88;5034203;28;20511;-66
2022/02/17 00:40:49;;;;;;;7.45;3.28;;;;;;;9.83;85.41;98056.81;5033287;28;20048;-66
2022/02/17 00:43:33;;;;;;;4.80;2.42;;;;;;;9.82;85.61;98054.25;5034088;28;20048;-66
2022/02/17 00:46:18;;;;;;;4.22;2.72;;;;;;;9.83;85.55;98077.50;5034337;28;20049;-67
2022/02/17 00:49:02;;;;;;;7.47;3.00;;;;;;;9.80;85.54;98082.75;5033117;28;20505;-66
2022/02/17 00:51:48;;;;;;;7.53;2.90;;;;;;;9.79;85.60;98085.34;5034050;28;20136;-68
2022/02/17 00:54:33;;;;;;;7.72;3.58;;;;;;;9.77;85.30;98094.84;5034188;28;20124;-66
2022/02/17 00:57:17;;;;;;;11.45;3.10;;;;;;;9.75;85.57;98118.16;5033882;28;20423;-67
2022/02/17 01:00:03;;;;;;;9.50;3.92;;;;;;;9.74;85.36;98111.28;5033908;28;20095;-66
2022/02/17 01:02:46;;;;;;;11.13;4.28;;;;;;;9.71;85.10;98135.47;5034016;28;20060;-66
2022/02/17 01:05:33;;;;;;;7.18;3.28;;;;;;;9.72;85.41;98142.34;5032727;28;20048;-66
2022/02/17 01:08:17;;;;;;;11.95;4.20;;;;;;;9.70;85.47;98156.16;5033676;28;20115;-66
2022/02/17 01:11:01;;;;;;;11.52;3.58;;;;;;;9.66;85.50;98155.34;5033133;28;20047;-67
2022/02/17 01:13:45;;;;;;;12.98;4.00;;;;;;;9.69;85.43;98162.19;5032691;28;20531;-66
2022/02/17 01:16:29;;;;;;;;;;;;;;;9.66;85.17;98162.22;5034234;28;20052;-66
2022/02/17 01:19:13;;;;;;;18.15;4.95;;;;;;;9.60;85.11;98169.19;5032802;28;19919;-66
2022/02/17 01:21:57;;;;;;;;;;;;;;;9.56;84.74;98175.25;5034191;28;20053;-66
2022/02/17 01:24:41;;;;;;;12.95;4.90;;;;;;;9.54;85.25;98177.00;5032101;28;20031;-66
2022/02/17 01:27:26;;;;;;;15.18;4.88;;;;;;;9.52;85.09;98212.34;5033195;28;20497;-65
2022/02/17 01:30:11;;;;;;;;;;;;;;;9.49;85.07;98214.13;5034177;28;20516;-66
2022/02/17 01:32:55;;;;;;;16.33;5.90;;;;;;;9.44;84.60;98211.56;5033757;28;19920;-66
2022/02/17 01:35:39;;;;;;;22.73;6.50;;;;;;;9.44;85.04;98199.50;5032648;28;20052;-66
2022/02/17 01:38:23;;;;;;;18.38;4.63;;;;;;;9.43;84.85;98207.28;5033599;28;20455;-67
2022/02/17 01:41:08;;;;;;;19.92;6.43;;;;;;;9.44;84.89;98215.00;5033335;28;20483;-66
2022/02/17 01:43:52;;;;;;;22.83;5.45;;;;;;;9.42;84.53;98221.91;5033172;28;20555;-65
2022/02/17 01:46:39;;;;;;;19.85;6.30;;;;;;;9.42;84.71;98223.66;5032678;28;20111;-65
2022/02/17 01:49:23;;;;;;;26.23;6.75;;;;;;;9.39;84.59;98221.97;5032567;28;20111;-66
2022/02/17 01:52:11;;;;;;;19.67;6.13;;;;;;;9.39;84.59;98227.13;5033105;28;20562;-66
2022/02/17 01:54:56;;;;;;;14.80;4.45;;;;;;;9.37;84.45;98228.88;5032419;28;20191;-66
2022/02/17 01:57:41;;;;;;;28.10;6.25;;;;;;;9.35;84.13;98240.94;5033387;28;20456;-67
2022/02/17 02:00:25;;;;;;;18.17;5.90;;;;;;;9.34;84.31;98253.91;5032704;28;20133;-66
2022/02/17 02:03:10;;;;;;;;;;;;;;;9.34;83.75;98269.41;5033379;28;20145;-66
2022/02/17 02:05:54;;;;;;;26.33;6.53;;;;;;;9.30;84.22;98263.38;5033451;28;20343;-66
2022/02/17 02:08:38;;;;;;;23.05;5.93;;;;;;;9.30;83.96;98268.56;5032429;28;20132;-66
2022/02/17 02:11:22;;;;;;;;;;;;;;;9.28;83.82;98260.81;5033312;28;20048;-65
2022/02/17 02:14:14;;;;;;;23.10;5.80;;;;;;;9.28;83.99;98259.94;5032448;28;19920;-65
2022/02/17 02:16:59;;;;;;;29.17;6.88;;;;;;;9.27;84.46;98266.00;5033119;28;20118;-67
2022/02/17 02:19:43;;;;;;;25.52;8.43;;;;;;;9.27;84.04;98263.41;5032491;28;20048;-66
2022/02/17 02:22:30;;;;;;;21.70;6.00;;;;;;;9.26;84.00;98291.00;5033229;28;20084;-66
2022/02/17 02:25:13;;;;;;;29.77;8.27;;;;;;;9.21;83.43;98282.41;5032006;28;20048;-65
2022/02/17 02:28:00;;;;;;;23.35;7.45;;;;;;;9.20;83.58;98314.28;5035999;28;20052;-65
2022/02/17 02:30:44;;;;;;;24.67;8.25;;;;;;;9.19;83.29;98307.41;5036610;28;20408;-65
2022/02/17 02:33:28;;;;;;;31.90;7.95;;;;;;;9.21;83.62;98331.50;5036246;28;20511;-66
2022/02/17 02:36:15;;;;;;;;;;;;;;;9.17;83.20;98304.00;5036864;28;20084;-66
2022/02/17 02:38:59;;;;;;;22.55;5.97;;;;;;;9.14;83.55;98317.78;5035708;28;19920;-66
2022/02/17 02:41:43;;;;;;;34.30;7.38;;;;;;;9.14;83.80;98320.34;5036697;28;20052;-65
2022/02/17 02:44:27;;;;;;;31.15;8.30;;;;;;;9.15;83.84;98336.75;5035420;28;20091;-66
2022/02/17 02:47:11;;;;;;;28.63;7.40;;;;;;;9.13;83.10;98339.31;5036626;28;20048;-66
2022/02/17 02:49:55;;;;;;;30.42;8.52;;;;;;;9.12;83.54;98323.81;5036567;28;20048;-65
2022/02/17 02:52:39;;;;;;;28.00;8.27;;;;;;;9.12;83.37;98340.19;5035555;28;20052;-67
2022/02/17 02:55:23;;;;;;;25.27;7.20;;;;;;;9.13;83.75;98341.06;5035365;28;20528;-66
2022/02/17 02:58:06;;;;;;;29.38;8.50;;;;;;;9.11;83.39;98353.13;5036133;28;20049;-66
2022/02/17 03:00:50;;;;;;;36.28;8.80;;;;;;;9.10;83.31;98359.16;5036154;28;20099;-65
2022/02/17 03:03:34;;;;;;;28.55;7.88;;;;;;;9.08;83.17;98358.31;5034905;28;20115;-66
2022/02/17 03:06:21;;;;;;;29.60;7.82;;;;;;;9.07;82.94;98354.88;5036032;28;20076;-66
2022/02/17 03:09:05;;;;;;;30.85;8.32;;;;;;;9.05;83.12;98372.09;5035442;28;20052;-66
2022/02/17 03:11:49;;;;;;;25.48;7.25;;;;;;;9.05;83.13;98390.19;5035027;28;20056;-66
2022/02/17 03:14:33;;;;;;;24.92;7.78;;;;;;;9.04;83.01;98397.94;5036079;28;20082;-66
2022/02/17 03:17:17;;;;;;;32.42;7.60;;;;;;;9.04;83.11;98380.72;5035731;28;20190;-66
2022/02/17 03:20:01;;;;;;;32.40;7.55;;;;;;;9.04;83.15;98390.19;5035406;28;20140;-66
2022/02/17 03:22:46;;;;;;;31.73;7.95;;;;;;;9.01;82.66;98401.41;5035950;28;20048;-65
2022/02/17 03:25:30;;;;;;;36.58;8.98;;;;;;;9.01;82.72;98401.41;5034498;28;20519;-66
2022/02/17 03:28:15;;;;;;;28.65;7.70;;;;;;;8.99;82.78;98424.69;5035605;28;20119;-66
2022/02/17 03:30:59;;;;;;;;;;;;;;;8.97;82.64;98428.97;5035160;28;20080;-66
2022/02/17 03:33:43;;;;;;;32.63;7.90;;;;;;;8.94;82.72;98417.81;5035738;28;20291;-66
2022/02/17 03:36:27;;;;;;;33.65;8.55;;;;;;;8.96;82.32;98437.59;5034953;28;20045;-66
2022/02/17 03:39:11;;;;;;;33.22;8.32;;;;;;;8.96;82.74;98423.81;5035452;28;20078;-66
2022/02/17 03:41:54;;;;;;;36.80;8.25;;;;;;;8.96;82.79;98449.66;5035261;28;20128;-65
2022/02/17 03:44:38;;;;;;;32.85;8.43;;;;;;;8.96;82.87;98441.88;5034972;28;20053;-66
2022/02/17 03:47:22;;;;;;;31.60;8.10;;;;;;;8.93;82.64;98447.09;5035337;28;20064;-66
2022/02/17 03:50:09;;;;;;;34.97;10.52;;;;;;;8.91;82.64;98447.06;5034394;28;20119;-66
2022/02/17 03:52:53;;;;;;;48.45;10.25;;;;;;;8.88;82.22;98457.41;5034551;28;20057;-66
2022/02/17 03:55:37;;;;;;;38.47;8.73;;;;;;;8.90;82.52;98434.19;5035319;28;20075;-66
2022/02/17 04:01:23;;;;;;;34.95;9.00;;;;;;;8.86;82.51;98478.97;5034778;28;20167;-66
2022/02/17 04:04:09;;;;;;;35.70;7.88;;;;;;;8.86;82.59;98479.84;5034839;28;20056;-66
2022/02/17 04:06:53;;;;;;;37.45;8.43;;;;;;;8.84;82.51;98466.06;5035095;28;20048;-66
2022/02/17 04:09:37;;;;;;;38.05;9.48;;;;;;;8.82;82.12;98476.38;5035106;28;20047;-66
2022/02/17 04:12:21;;;;;;;42.63;9.00;;;;;;;8.83;82.29;98488.44;5034006;28;20118;-66
2022/02/17 04:15:06;;;;;;;34.83;8.57;;;;;;;8.81;82.25;98495.31;5034722;28;20088;-67
2022/02/17 04:17:51;;;;;;;42.28;9.77;;;;;;;8.82;82.20;98494.47;5034594;28;20080;-66
2022/02/17 04:20:35;;;;;;;42.97;8.85;;;;;;;8.81;82.22;98513.41;5033687;28;20111;-66
2022/02/17 04:23:19;;;;;;;31.23;8.70;;;;;;;8.79;82.25;98489.31;5033790;28;20064;-65
2022/02/17 04:26:03;;;;;;;35.85;8.75;;;;;;;8.78;82.11;98497.06;5034270;28;20064;-66
2022/02/17 04:28:48;;;;;;;29.77;7.78;;;;;;;8.78;82.15;98513.44;5034724;28;20063;-66
2022/02/17 04:31:32;;;;;;;35.85;9.07;;;;;;;8.77;82.27;98521.16;5034657;28;20566;-65
2022/02/17 04:34:16;;;;;;;44.13;10.45;;;;;;;8.77;82.13;98529.78;5034636;28;20530;-66
2022/02/17 04:37:00;;;;;;;39.28;11.05;;;;;;;8.79;82.25;98542.69;5034113;28;20056;-65
2022/02/17 04:39:44;;;;;;;41.35;9.70;;;;;;;8.79;82.43;98545.28;5034304;28;20076;-66
2022/02/17 04:42:28;;;;;;;34.55;8.68;;;;;;;8.78;82.31;98565.09;5034474;28;20145;-65
2022/02/17 04:45:12;;;;;;;37.95;8.30;;;;;;;8.75;82.11;98572.84;5033189;28;20172;-67
2022/02/17 04:47:57;;;;;;;51.13;11.07;;;;;;;8.75;81.81;98562.50;5033942;28;20055;-66
2022/02/17 04:50:42;;;;;;;44.80;10.07;;;;;;;8.76;81.82;98565.94;5032642;28;20075;-66
2022/02/17 04:53:26;;;;;;;33.05;10.07;;;;;;;8.76;82.09;98581.44;5033964;28;20523;-65
2022/02/17 04:56:10;;;;;;;46.63;10.55;;;;;;;8.76;81.88;98576.28;5033963;28;20402;-66
2022/02/17 04:58:54;;;;;;;37.90;9.45;;;;;;;8.78;82.05;98588.34;5034206;28;20433;-65
2022/02/17 05:01:38;;;;;;;43.30;10.90;;;;;;;8.76;81.83;98587.47;5034079;28;20451;-66
2022/02/17 05:04:22;;;;;;;50.55;11.65;;;;;;;8.75;81.79;98592.63;5033459;28;20060;-65
2022/02/17 05:07:06;;;;;;;49.33;10.63;;;;;;;8.74;81.56;98594.38;5033174;28;20547;-66
2022/02/17 05:09:52;;;;;;;42.83;9.82;;;;;;;8.75;81.78;98609.00;5033070;28;20084;-66
2022/02/17 05:12:37;;;;;;;50.85;10.95;;;;;;;8.75;81.77;98621.03;5032274;28;20131;-65
2022/02/17 05:15:21;;;;;;;50.63;11.57;;;;;;;8.73;81.77;98617.59;5032867;28;20048;-66
2022/02/17 05:18:05;;;;;;;;;;;;;;;8.72;81.57;98608.16;5033983;28;20048;-66
2022/02/17 05:20:52;;;;;;;51.80;12.02;;;;;;;8.71;81.56;98609.00;5033426;28;20325;-66
2022/02/17 05:23:36;;;;;;;40.90;10.57;;;;;;;8.70;81.84;98631.38;5032658;28;20048;-66
2022/02/17 05:26:21;;;;;;;;;;;;;;;8.67;81.40;98629.66;5033878;28;20099;-66
2022/02/17 05:29:04;;;;;;;46.05;10.45;;;;;;;8.68;81.61;98643.44;5033738;28;19924;-65
2022/02/17 05:31:49;;;;;;;45.53;11.73;;;;;;;8.65;81.58;98627.91;5032355;28;20072;-66
2022/02/17 05:34:33;;;;;;;52.05;11.15;;;;;;;8.65;81.60;98630.50;5033588;28;20052;-66
2022/02/17 05:37:16;;;;;;;47.22;10.20;;;;;;;8.65;81.62;98633.97;5032408;28;20053;-66
2022/02/17 05:40:05;;;;;;;41.83;10.55;;;;;;;8.64;81.28;98636.56;5033054;28;20516;-65
2022/02/17 05:42:52;;;;;;;49.05;10.43;;;;;;;8.63;81.72;98658.94;5032744;28;20451;-66
2022/02/17 05:45:36;;;;;;;45.45;10.27;;;;;;;8.64;81.53;98652.06;5033253;28;20087;-66
2022/02/17 05:48:23;;;;;;;44.65;10.00;;;;;;;8.65;81.46;98654.63;5033425;28;20045;-65
2022/02/17 05:51:07;;;;;;;43.72;12.02;;;;;;;8.64;81.39;98663.22;5033310;28;20187;-66
2022/02/17 05:53:51;;;;;;;50.95;13.00;;;;;;;8.61;81.09;98663.22;5032576;28;20467;-66
2022/02/17 05:56:35;;;;;;;40.70;12.23;;;;;;;8.62;81.23;98664.94;5033526;28;20060;-66
2022/02/17 05:59:19;;;;;;;58.55;11.65;;;;;;;8.60;81.11;98671.81;5033262;28;20048;-65
2022/02/17 06:02:03;;;;;;;47.05;11.32;;;;;;;8.62;81.44;98693.34;5036461;28;20049;-66
2022/02/17 06:04:47;;;;;;;;;;;;;;;8.61;81.13;98706.28;5037637;28;20096;-65
2022/02/17 06:07:34;;;;;;;56.30;10.55;;;;;;;8.58;81.23;98683.03;5036404;28;19924;-65
2022/02/17 06:10:21;;;;;;;58.08;12.20;;;;;;;8.61;81.26;98706.28;5037239;28;20512;-66
2022/02/17 06:13:05;;;;;;;46.97;10.77;;;;;;;8.58;81.28;98708.84;5036042;28;20099;-66
2022/02/17 06:15:49;;;;;;;45.40;11.50;;;;;;;8.56;81.04;98713.16;5036851;28;20092;-65
2022/02/17 06:18:35;;;;;;;46.35;11.07;;;;;;;8.57;81.04;98714.88;5037201;28;20048;-66
2022/02/17 06:21:20;;;;;;;51.53;10.80;;;;;;;8.56;81.10;98719.19;5036283;28;20064;-65
2022/02/17 06:24:04;;;;;;;43.55;10.85;;;;;;;8.56;80.70;98714.03;5036954;28;20091;-66
2022/02/17 06:26:48;;;;;;;;;;;;;;;8.55;81.01;98720.03;5037361;28;20048;-65
2022/02/17 06:29:32;;;;;;;51.17;11.35;;;;;;;8.53;80.86;98729.50;5036556;28;19920;-65
2022/02/17 06:32:16;;;;;;;51.75;11.52;;;;;;;8.52;80.94;98735.53;5036686;28;20047;-66
2022/02/17 06:35:00;;;;;;;39.00;9.57;;;;;;;8.52;80.71;98745.84;5036595;28;20407;-66
2022/02/17 06:37:44;;;;;;;37.90;11.27;;;;;;;8.53;80.70;98738.09;5036562;28;20099;-66
2022/02/17 06:40:29;;;;;;;45.00;10.65;;;;;;;8.49;80.63;98769.91;5035740;28;20048;-65
2022/02/17 06:43:14;;;;;;;45.60;10.52;;;;;;;8.49;80.70;98775.09;5035828;28;20503;-66
2022/02/17 06:45:57;;;;;;;52.15;10.88;;;;;;;8.50;80.55;98768.22;5036354;28;20049;-66
2022/02/17 06:48:42;;;;;;;59.95;11.73;;;;;;;8.50;80.70;98768.22;5036377;28;20060;-66
2022/02/17 06:51:26;;;;;;;33.45;9.77;;;;;;;8.50;80.76;98775.97;5036427;28;20056;-65
2022/02/17 06:54:12;;;;;;;42.72;10.07;;;;;;;8.48;80.39;98780.25;5036211;28;20052;-65
2022/02/17 06:56:56;;;;;;;47.55;10.30;;;;;;;8.48;80.39;98785.41;5036642;28;20579;-66
2022/02/17 06:59:40;;;;;;;35.97;9.23;;;;;;;8.49;80.48;98794.91;5036401;28;20040;-66
2022/02/17 07:02:26;;;;;;;47.85;11.38;;;;;;;8.48;80.51;98804.38;5036330;28;20140;-65
2022/02/17 07:05:10;;;;;;;48.78;11.60;;;;;;;8.47;80.35;98822.41;5034539;28;20060;-65
2022/02/17 07:07:54;;;;;;;51.05;10.23;;;;;;;8.45;80.46;98814.66;5035290;28;20156;-65
2022/02/17 07:10:56;;;;;;;40.53;11.65;;;;;;;8.44;79.96;98833.59;5034879;28;20057;-65
2022/02/17 07:13:40;;;;;;;39.78;10.25;;;;;;;8.44;80.25;98819.78;5034285;28;20060;-66
2022/02/17 07:16:25;;;;;;;47.70;11.82;;;;;;;8.44;80.09;98837.88;5036077;28;20129;-65
2022/02/17 07:19:11;;;;;;;38.05;8.80;;;;;;;8.43;80.09;98842.19;5035599;28;20092;-65
2022/02/17 07:21:56;;;;;;;52.67;11.30;;;;;;;8.43;80.24;98837.00;5035964;28;20064;-66
2022/02/17 07:24:39;;;;;;;49.15;11.45;;;;;;;8.43;80.21;98862.84;5035337;28;20530;-65
2022/02/17 07:27:23;;;;;;;40.85;10.23;;;;;;;8.41;80.10;98849.06;5036236;28;20056;-65
2022/02/17 07:30:08;;;;;;;71.85;14.98;;;;;;;8.41;79.86;98858.53;5035760;28;20044;-65
2022/02/17 07:32:54;;;;;;;52.15;11.85;;;;;;;8.40;80.01;98857.66;5035389;28;20126;-66
2022/02/17 07:35:41;;;;;;;48.83;12.30;;;;;;;8.40;79.83;98872.28;5035756;28;20080;-66
2022/02/17 07:38:25;;;;;;;55.90;12.07;;;;;;;8.41;79.96;98867.13;5034410;28;20524;-66
2022/02/17 07:41:09;;;;;;;53.42;11.18;;;;;;;8.40;79.81;98864.53;5034846;28;20056;-65
2022/02/17 07:43:53;;;;;;;52.70;11.73;;;;;;;8.37;79.78;98888.59;5035037;28;20048;-65
2022/02/17 07:46:37;;;;;;;49.08;12.85;;;;;;;8.37;80.04;98894.66;5035252;28;20409;-65
2022/02/17 07:49:23;;;;;;;48.15;12.00;;;;;;;8.35;79.77;98905.81;5034713;28;20057;-66
2022/02/17 07:52:07;;;;;;;56.08;13.10;;;;;;;8.37;79.78;98898.94;5034398;28;20044;-66
2022/02/17 07:54:52;;;;;;;49.42;13.77;;;;;;;8.38;80.09;98914.44;5035312;28;20056;-65
2022/02/17 07:57:35;;;;;;;50.15;12.20;;;;;;;8.40;79.68;98918.75;5035342;28;20131;-65
2022/02/17 08:00:19;;;;;;;65.93;12.52;;;;;;;8.40;79.98;98921.34;5034270;28;20071;-66
2022/02/17 08:03:04;;;;;;;57.60;12.32;;;;;;;8.36;79.59;98929.06;5035062;28;20088;-66
2022/02/17 08:05:47;;;;;;;66.00;13.25;;;;;;;8.37;79.97;98930.78;5033850;28;20091;-66
2022/02/17 08:08:31;;;;;;;40.60;10.85;;;;;;;8.38;79.86;98948.03;5034748;28;20052;-66
2022/02/17 08:11:16;;;;;;;57.70;13.02;;;;;;;8.36;79.67;98941.97;5034853;28;20523;-66
2022/02/17 08:13:59;;;;;;;;;;;;;;;8.35;79.36;98953.16;5035362;28;20163;-66
2022/02/17 08:16:43;;;;;;;54.30;10.95;;;;;;;8.37;79.94;98956.63;5033998;28;19958;-65
2022/02/17 08:19:27;;;;;;;54.05;11.68;;;;;;;8.36;79.77;98952.31;5034012;28;20080;-66
2022/02/17 08:22:11;;;;;;;51.97;11.60;;;;;;;8.37;79.67;98966.94;5034877;28;20458;-65
2022/02/17 08:24:55;;;;;;;51.53;10.95;;;;;;;8.36;79.52;98962.63;5033699;28;20052;-65
2022/02/17 08:27:39;;;;;;;49.25;11.30;;;;;;;8.37;79.50;98954.03;5034747;28;20037;-66
2022/02/17 08:30:24;;;;;;;51.72;12.55;;;;;;;8.38;79.55;98979.00;5033649;28;20119;-65
2022/02/17 08:33:08;;;;;;;46.63;11.65;;;;;;;8.37;79.60;98966.06;5033431;28;20095;-66
2022/02/17 08:35:52;;;;;;;;;;;;;;;8.37;79.31;98981.53;5034730;28;20056;-65
2022/02/17 08:38:36;;;;;;;48.95;12.75;;;;;;;8.37;79.72;98981.53;5034232;28;19920;-66
2022/02/17 08:41:22;;;;;;;54.63;12.10;;;;;;;8.35;79.76;98986.72;5034432;28;20087;-66
2022/02/17 08:44:06;;;;;;;44.90;10.70;;;;;;;8.37;79.31;98991.88;5033478;28;20083;-65
2022/02/17 08:46:51;;;;;;;56.50;13.02;;;;;;;8.40;79.66;98989.31;5034256;28;20574;-66
2022/02/17 08:49:35;;;;;;;;;;;;;;;8.39;79.36;99003.09;5034474;28;20464;-66
2022/02/17 08:52:21;;;;;;;58.60;11.73;;;;;;;8.41;79.38;99001.38;5034314;28;20391;-65
2022/02/17 08:55:06;;;;;;;38.83;10.68;;;;;;;8.41;79.52;99003.97;5034224;28;20451;-66
2022/02/17 08:57:51;;;;;;;53.10;10.82;;;;;;;8.41;79.50;99013.44;5033138;28;20072;-65
2022/02/17 09:00:36;;;;;;;41.35;9.52;;;;;;;8.41;79.42;99003.97;5033957;28;20518;-65
2022/02/17 09:03:20;;;;;;;55.15;11.25;;;;;;;8.43;79.41;99009.13;5032985;28;20119;-65
2022/02/17 09:06:05;;;;;;;53.45;12.05;;;;;;;8.44;79.54;99018.59;5034119;28;20504;-67
2022/02/17 09:08:49;;;;;;;53.75;11.10;;;;;;;8.44;79.50;99024.66;5033838;28;20563;-66
2022/02/17 09:11:33;;;;;;;47.08;10.88;;;;;;;8.43;79.47;99022.94;5034047;28;20056;-66
2022/02/17 09:14:17;;;;;;;;;;;;;;;8.43;79.04;99028.09;5034166;28;20056;-66
2022/02/17 09:17:02;;;;;;;43.47;10.38;;;;;;;8.45;79.26;99053.91;5032913;28;19936;-65
2022/02/17 09:19:49;;;;;;;44.25;11.32;;;;;;;8.44;79.30;99034.97;5033036;28;20044;-65
2022/02/17 09:22:33;;;;;;;39.47;9.85;;;;;;;8.45;79.40;99034.13;5033857;28;20048;-66
2022/02/17 09:25:17;;;;;;;60.13;12.77;;;;;;;8.48;79.19;99039.38;5033498;28;20594;-66
2022/02/17 09:28:05;;;;;;;42.63;10.30;;;;;;;8.48;79.03;99038.47;5033467;28;20508;-65
2022/02/17 09:30:49;;;;;;;45.97;10.48;;;;;;;8.49;79.29;99051.41;5032859;28;20052;-66
2022/02/17 09:33:33;;;;;;;;;;;;;;;8.48;78.90;99067.78;5033073;28;20092;-65
2022/02/17 09:36:20;;;;;;;44.92;9.45;;;;;;;8.46;79.12;99055.66;5033457;28;19983;-66
2022/02/17 09:39:05;;;;;;;44.35;11.02;;;;;;;8.47;79.01;99065.13;5033485;28;20048;-65
2022/02/17 09:41:49;;;;;;;50.10;10.85;;;;;;;8.48;78.90;99060.03;5033562;28;20088;-66
2022/02/17 09:44:35;;;;;;;45.83;9.50;;;;;;;8.48;78.91;99053.97;5032527;28;20467;-66
2022/02/17 09:47:20;;;;;;;47.08;10.98;;;;;;;8.48;78.56;99062.59;5033333;28;20145;-66
2022/02/17 09:50:10;;;;;;;56.70;12.55;;;;;;;8.47;78.83;99066.00;5033321;28;20421;-65
2022/02/17 09:52:54;;;;;;;38.83;10.18;;;;;;;8.47;79.07;99062.53;5032418;28;20045;-67
2022/02/17 09:55:39;;;;;;;43.13;9.57;;;;;;;8.50;78.91;99071.19;5032682;28;20103;-66
2022/02/17 09:58:23;;;;;;;44.72;11.35;;;;;;;8.49;79.07;99069.47;5032616;28;20396;-66
2022/02/17 10:01:07;;;;;;;46.90;12.73;;;;;;;8.49;78.96;99089.28;5033558;28;20048;-66
2022/02/17 10:03:51;;;;;;;46.10;10.10;;;;;;;8.48;78.83;99093.59;5033219;28;20064;-65
2022/02/17 10:06:50;;;;;;;41.00;12.15;;;;;;;8.48;78.61;99090.13;5033459;28;20223;-65
2022/02/17 10:11:54;;;;;;;46.90;11.82;;;;;;;8.49;78.82;99112.53;5027625;28;20876;-65
2022/02/17 10:14:39;;;;;;;35.63;10.52;;;;;;;8.46;78.55;99113.34;5012968;28;20047;-66
2022/02/17 10:17:23;;;;;;;38.53;9.23;;;;;;;8.46;78.88;99110.75;5012716;28;20064;-66
2022/02/17 10:20:07;;;;;;;34.00;8.40;;;;;;;8.47;78.46;99124.50;5027690;28;20053;-66
2022/02/17 10:23:05;;;;;;;26.95;7.10;;;;;;;8.45;78.64;99126.22;5027580;28;20453;-65
2022/02/17 10:25:57;;;;;;;30.00;8.80;;;;;;;8.45;78.76;99132.25;5027513;28;20431;-66
2022/02/17 10:28:58;;;;;;;30.05;8.50;;;;;;;8.43;78.63;99139.13;5012674;28;20158;-66
2022/02/17 10:31:44;;;;;;;34.05;7.65;;;;;;;8.41;78.68;99143.41;5027081;28;20048;-66
2022/02/17 10:34:28;;;;;;;30.00;6.85;;;;;;;8.40;78.80;99143.41;5026998;28;20064;-65
2022/02/17 10:37:12;;;;;;;19.17;5.70;;;;;;;8.38;78.81;99148.53;5012491;28;20049;-66
2022/02/17 10:40:13;;;;;;;18.65;6.20;;;;;;;8.36;78.58;99156.28;5012515;28;20458;-65
2022/02/17 10:43:02;;;;;;;25.77;7.28;;;;;;;8.40;78.61;99154.56;5012448;28;20102;-66
2022/02/17 10:45:49;;;;;;;28.65;6.70;;;;;;;8.43;78.67;99146.88;5012239;28;20515;-65
2022/02/17 10:48:33;;;;;;;25.80;6.30;;;;;;;8.48;78.81;99158.16;5012056;28;20110;-65
2022/02/17 10:51:18;;;;;;;28.17;7.57;;;;;;;8.53;78.56;99164.22;5012271;28;20400;-65
2022/02/17 10:54:02;;;;;;;27.42;7.30;;;;;;;8.56;78.59;99168.56;5012214;28;20045;-65
2022/02/17 10:56:51;;;;;;;25.05;6.32;;;;;;;8.61;78.78;99186.69;5027079;28;20057;-65
2022/02/17 11:02:46;;;;;;;25.45;7.00;;;;;;;8.70;78.47;99207.44;5027074;28;20072;-65
2022/02/17 11:05:30;;;;;;;29.45;8.05;;;;;;;8.73;78.41;99191.09;5011985;28;20558;-65
2022/02/17 11:08:17;;;;;;;23.25;7.38;;;;;;;8.77;78.49;99198.91;5026797;28;20060;-65
2022/02/17 11:11:03;;;;;;;28.52;6.25;;;;;;;8.80;78.42;99208.41;5026190;28;20080;-65
2022/02/17 11:13:49;;;;;;;25.92;6.53;;;;;;;8.82;78.36;99214.44;5011878;28;20098;-65
2022/02/17 11:16:33;;;;;;;30.38;8.70;;;;;;;8.84;78.26;99215.34;5011886;28;20072;-65
2022/02/17 11:19:18;;;;;;;;;;;;;;;8.85;78.14;99214.47;5027228;28;20040;-65
2022/02/17 11:22:04;;;;;;;32.90;8.07;;;;;;;8.83;78.35;99222.19;5020355;28;19943;-66
2022/02/17 11:24:51;;;;;;;28.25;6.85;;;;;;;8.85;78.38;99217.06;5013371;28;20411;-65
2022/02/17 11:28:11;;;;;;;31.63;7.55;;;;;;;8.87;78.21;99225.69;4998799;28;20060;-65
2022/02/17 11:30:58;;;;;;;31.45;7.60;;;;;;;8.91;78.21;99214.53;4998666;28;20048;-65
2022/02/17 11:33:54;;;;;;;27.13;8.05;;;;;;;8.93;78.09;99230.91;5013260;28;20045;-66
2022/02/17 11:36:38;;;;;;;33.97;7.68;;;;;;;8.93;77.99;99214.56;4998485;28;20104;-65
2022/02/17 11:39:42;;;;;;;36.85;7.82;;;;;;;8.95;78.12;99210.28;5013355;28;20049;-66
2022/02/17 11:42:31;;;;;;;32.73;7.83;;;;;;;8.92;77.95;99211.09;4998412;28;20135;-66
2022/02/17 11:45:20;;;;;;;24.23;6.15;;;;;;;8.91;77.92;99206.78;4998364;28;20571;-65
2022/02/17 11:48:09;;;;;;;30.27;7.78;;;;;;;8.90;77.81;99217.94;4998231;28;20065;-65
2022/02/17 11:51:17;;;;;;;26.90;6.05;;;;;;;8.86;77.82;99198.13;4998203;28;20045;-66
2022/02/17 11:54:15;;;;;;;33.38;7.18;;;;;;;8.83;77.78;99188.59;4997896;28;20073;-66
2022/02/17 11:56:59;;;;;;;31.95;9.23;;;;;;;8.81;77.75;99207.53;4998021;28;20084;-66
2022/02/17 11:59:45;;;;;;;24.83;7.15;;;;;;;8.78;77.72;99200.63;4998027;28;20581;-65
2022/02/17 12:02:41;;;;;;;36.65;8.10;;;;;;;8.81;78.06;99199.78;4998397;28;20134;-66
2022/02/17 12:05:25;;;;;;;30.95;7.10;;;;;;;8.83;77.81;99203.25;5012524;28;20158;-65
2022/02/17 12:08:24;;;;;;;28.23;6.85;;;;;;;8.85;77.67;99196.41;4998002;28;20098;-65
2022/02/17 12:11:38;;;;;;;23.52;6.28;;;;;;;8.88;77.24;99205.88;4997479;28;20100;-65
2022/02/17 12:14:23;;;;;;;26.27;7.80;;;;;;;8.92;77.82;99212.81;5013727;28;20045;-65
2022/02/17 12:17:10;;;;;;;27.27;6.80;;;;;;;8.94;77.73;99191.28;5012314;28;20115;-66
2022/02/17 12:20:24;;;;;;;21.65;6.70;;;;;;;8.97;77.38;99211.13;5012632;28;20520;-66
2022/02/17 12:23:08;;;;;;;22.10;5.75;;;;;;;8.98;77.41;99218.03;4997901;28;20542;-65
2022/02/17 12:25:55;;;;;;;27.83;5.20;;;;;;;8.97;77.60;99213.72;5012823;28;20048;-65
2022/02/17 12:28:39;;;;;;;28.77;7.53;;;;;;;9.01;77.35;99201.69;5012344;28;20064;-66
2022/02/17 12:31:43;;;;;;;26.65;6.28;;;;;;;9.04;77.61;99202.59;5012252;28;20111;-66
2022/02/17 12:34:28;;;;;;;28.88;6.45;;;;;;;9.03;77.43;99200.84;5011491;28;20053;-66
2022/02/17 12:37:19;;;;;;;;;;;;;;;9.04;77.26;99204.28;5012876;28;20516;-66
2022/02/17 12:40:03;;;;;;;22.88;6.00;;;;;;;9.03;77.44;99207.75;5012259;28;19927;-66
2022/02/17 12:42:51;;;;;;;;;;;;;;;9.02;77.31;99217.22;4997983;28;20049;-66
2022/02/17 12:45:45;;;;;;;18.52;6.88;;;;;;;9.02;77.32;99232.72;5025502;28;19967;-66
2022/02/17 12:48:31;;;;;;;21.50;6.78;;;;;;;9.02;77.12;99222.38;4997483;28;20095;-66
2022/02/17 12:51:30;;;;;;;25.70;7.03;;;;;;;9.02;77.06;99214.63;5011840;28;20193;-65
2022/02/17 12:54:15;;;;;;;16.17;6.03;;;;;;;9.02;77.02;99234.44;4997055;28;20052;-66
2022/02/17 12:57:05;;;;;;;;;;;;;;;8.98;76.37;99234.41;4997991;28;20044;-66
2022/02/17 12:59:59;;;;;;;27.10;5.82;;;;;;;8.93;76.43;99224.88;5012005;28;19939;-66
2022/02/17 13:02:43;;;;;;;21.15;5.28;;;;;;;8.93;76.63;99238.66;5011994;28;20087;-66
2022/02/17 13:06:17;;;;;;;18.30;5.05;;;;;;;8.93;76.60;99251.59;4997256;28;20040;-67
2022/02/17 13:08:55;;;;;;;14.18;4.38;;;;;;;8.93;76.47;99245.56;5011698;28;20115;-66
2022/02/17 13:11:45;;;;;;;16.25;5.60;;;;;;;8.92;76.43;99254.16;4973387;28;20053;-66
2022/02/17 13:14:53;;;;;;;20.77;6.07;;;;;;;8.93;76.31;99269.69;4972040;28;20091;-66